KOEO/OEO METAR and TAF weather

Enter ICAO airport designator
Station Type Date Time Source
KOEO METAR 2021/01/22 05:35 UTC NOAA

KOEO 220535Z AUTO 31008KT 10SM CLR M14/M19 A3010 RMK AO2 T11401190


Station Type Date Time Source
KOEO Decoded METAR 2021/01/22 05:35 UTC NOAA

Osceola, L O Simenstad Municipal Airport, WI, United States (KOEO) 45-18-31N 092-41-24W
Jan 22, 2021 - 12:35 AM EST / 2021.01.22 0535 UTC
Wind: from the NW (310 degrees) at 9 MPH (8 KT):0
Visibility: 10 mile(s):0
Sky conditions: clear
Temperature: 6.8 F (-14.0 C)
Windchill: -7 F (-22 C):2
Dew Point: -2.2 F (-19.0 C)
Relative Humidity: 65%
Pressure (altimeter): 30.1 in. Hg (1019 hPa)
ob: KOEO 220535Z AUTO 31008KT 10SM CLR M14/M19 A3010 RMK AO2 T11401190
cycle: 5

Station Type Date Time Source
KOEO TAF UTC NOAA

Error!

Example: see airport list